TimeEDT,TemperatureF,Dew PointF,Humidity,Sea Level PressureIn,VisibilityMPH,Wind Direction,Wind SpeedMPH,Gust SpeedMPH,PrecipitationIn,Events,Conditions,WindDirDegrees,DateUTC
12:53 AM,61.0,55.9,83,30.06,10.0,NNE,9.2,-,N/A,,Overcast,20,2012-10-08 04:53:00
1:53 AM,59.0,55.0,87,30.07,10.0,NNE,10.4,-,N/A,,Overcast,20,2012-10-08 05:53:00
2:53 AM,59.0,54.0,83,30.08,10.0,NNE,9.2,17.3,N/A,,Overcast,20,2012-10-08 06:53:00
3:53 AM,59.0,53.1,81,30.08,10.0,NE,12.7,-,0.00,,Overcast,40,2012-10-08 07:53:00
4:44 AM,57.2,53.6,88,30.08,10.0,ENE,11.5,-,N/A,,Overcast,60,2012-10-08 08:44:00
4:53 AM,57.9,53.1,84,30.08,10.0,NNE,11.5,-,N/A,,Overcast,30,2012-10-08 08:53:00
5:53 AM,57.9,53.1,84,30.09,10.0,NE,11.5,-,N/A,,Overcast,40,2012-10-08 09:53:00
6:53 AM,57.0,53.1,87,30.11,10.0,NE,9.2,-,N/A,,Overcast,40,2012-10-08 10:53:00
7:29 AM,57.2,51.8,82,30.10,10.0,NE,11.5,-,N/A,,Overcast,40,2012-10-08 11:29:00
7:53 AM,57.0,52.0,83,30.12,10.0,NNE,10.4,17.3,N/A,,Overcast,20,2012-10-08 11:53:00
8:53 AM,57.0,53.1,87,30.14,10.0,NE,10.4,-,N/A,,Overcast,40,2012-10-08 12:53:00
9:53 AM,57.9,53.1,84,30.14,10.0,NNE,10.4,-,N/A,,Overcast,20,2012-10-08 13:53:00
10:27 AM,57.2,53.6,88,30.12,5.0,NE,11.5,17.3,N/A,,Overcast,40,2012-10-08 14:27:00
10:53 AM,57.9,54.0,87,30.12,5.0,NE,12.7,-,N/A,,Overcast,40,2012-10-08 14:53:00
11:53 AM,60.1,55.0,83,30.12,10.0,NNE,8.1,-,N/A,,Overcast,30,2012-10-08 15:53:00
12:53 PM,63.0,57.0,81,30.09,10.0,North,9.2,-,N/A,,Overcast,10,2012-10-08 16:53:00
1:06 PM,62.6,57.2,82,30.07,10.0,NNE,10.4,-,N/A,,Overcast,30,2012-10-08 17:06:00
1:53 PM,64.9,59.0,81,30.05,10.0,NNE,9.2,-,N/A,,Overcast,20,2012-10-08 17:53:00
2:53 PM,64.0,57.9,80,30.05,10.0,North,8.1,-,N/A,,Overcast,10,2012-10-08 18:53:00
3:48 PM,60.8,57.2,88,30.03,9.0,North,10.4,16.1,N/A,,Overcast,350,2012-10-08 19:48:00
3:53 PM,60.1,57.0,90,30.04,8.0,NNW,10.4,17.3,N/A,,Overcast,330,2012-10-08 19:53:00
4:17 PM,57.2,55.4,94,30.04,2.0,North,6.9,18.4,0.00,Rain,Light Rain,360,2012-10-08 20:17:00
4:35 PM,57.2,55.4,94,30.04,2.0,North,8.1,-,0.00,,Overcast,360,2012-10-08 20:35:00
4:53 PM,57.9,55.9,93,30.03,2.0,North,9.2,17.3,0.00,,Overcast,10,2012-10-08 20:53:00
4:59 PM,57.2,55.4,94,30.02,3.0,North,9.2,17.3,N/A,,Overcast,10,2012-10-08 20:59:00
5:53 PM,57.0,54.0,89,30.06,10.0,North,10.4,19.6,0.00,Rain,Light Rain,350,2012-10-08 21:53:00
6:53 PM,54.0,52.0,93,30.05,4.0,NNE,10.4,23.0,0.12,Rain,Rain,20,2012-10-08 22:53:00
7:01 PM,53.6,51.8,94,30.06,6.0,North,10.4,19.6,0.02,Rain,Rain,10,2012-10-08 23:01:00
7:53 PM,53.1,52.0,96,30.06,8.0,North,9.2,16.1,0.21,Rain,Rain,360,2012-10-08 23:53:00
8:53 PM,52.0,51.1,97,30.07,10.0,North,9.2,-,0.03,,Overcast,360,2012-10-09 00:53:00
10:53 PM,53.1,51.1,93,30.10,10.0,North,5.8,-,N/A,,Overcast,360,2012-10-09 02:53:00
11:53 PM,53.1,52.0,96,30.09,6.0,North,6.9,-,N/A,,Overcast,360,2012-10-09 03:53:00